sensor_id;sensor_type;location;lat;lon;timestamp;P1;durP1;ratioP1;P2;durP2;ratioP2
10144;SDS011;5113;41.822;23.564;2023-01-08T00:02:15;13.80;;;7.87;;
10144;SDS011;5113;41.822;23.564;2023-01-08T00:05:23;21.80;;;7.37;;
10144;SDS011;5113;41.822;23.564;2023-01-08T00:08:30;10.77;;;6.53;;
10144;SDS011;5113;41.822;23.564;2023-01-08T00:11:37;20.70;;;9.73;;
10144;SDS011;5113;41.822;23.564;2023-01-08T00:14:44;28.20;;;11.63;;
10144;SDS011;5113;41.822;23.564;2023-01-08T00:17:52;30.50;;;13.00;;
10144;SDS011;5113;41.822;23.564;2023-01-08T00:20:59;29.43;;;13.87;;
10144;SDS011;5113;41.822;23.564;2023-01-08T00:24:06;64.47;;;22.37;;
10144;SDS011;5113;41.822;23.564;2023-01-08T00:27:13;100.37;;;30.17;;
10144;SDS011;5113;41.822;23.564;2023-01-08T00:30:20;49.77;;;20.43;;
10144;SDS011;5113;41.822;23.564;2023-01-08T00:33:28;45.63;;;15.37;;
10144;SDS011;5113;41.822;23.564;2023-01-08T00:36:35;34.13;;;15.70;;
10144;SDS011;5113;41.822;23.564;2023-01-08T00:39:42;33.97;;;15.43;;
10144;SDS011;5113;41.822;23.564;2023-01-08T00:42:48;64.33;;;19.87;;
10144;SDS011;5113;41.822;23.564;2023-01-08T00:45:54;78.43;;;24.83;;
10144;SDS011;5113;41.822;23.564;2023-01-08T00:49:02;56.30;;;22.40;;
10144;SDS011;5113;41.822;23.564;2023-01-08T00:52:08;36.20;;;17.57;;
10144;SDS011;5113;41.822;23.564;2023-01-08T00:55:14;38.77;;;14.37;;
10144;SDS011;5113;41.822;23.564;2023-01-08T00:58:21;36.43;;;13.03;;
10144;SDS011;5113;41.822;23.564;2023-01-08T01:01:28;38.30;;;14.00;;
10144;SDS011;5113;41.822;23.564;2023-01-08T01:04:36;34.50;;;13.97;;
10144;SDS011;5113;41.822;23.564;2023-01-08T01:07:42;47.03;;;15.73;;
10144;SDS011;5113;41.822;23.564;2023-01-08T01:10:49;24.43;;;13.30;;
10144;SDS011;5113;41.822;23.564;2023-01-08T01:13:55;30.47;;;11.90;;
10144;SDS011;5113;41.822;23.564;2023-01-08T01:17:01;30.57;;;13.27;;
10144;SDS011;5113;41.822;23.564;2023-01-08T01:20:10;30.50;;;12.07;;
10144;SDS011;5113;41.822;23.564;2023-01-08T01:23:18;41.47;;;14.30;;
10144;SDS011;5113;41.822;23.564;2023-01-08T01:26:25;13.03;;;8.77;;
10144;SDS011;5113;41.822;23.564;2023-01-08T01:29:32;18.67;;;10.10;;
10144;SDS011;5113;41.822;23.564;2023-01-08T01:32:38;14.10;;;8.93;;
10144;SDS011;5113;41.822;23.564;2023-01-08T01:35:46;14.87;;;10.23;;
10144;SDS011;5113;41.822;23.564;2023-01-08T01:38:52;16.23;;;10.60;;
10144;SDS011;5113;41.822;23.564;2023-01-08T01:42:00;20.17;;;10.57;;
10144;SDS011;5113;41.822;23.564;2023-01-08T01:45:12;13.70;;;9.20;;
10144;SDS011;5113;41.822;23.564;2023-01-08T01:48:22;21.33;;;7.40;;
10144;SDS011;5113;41.822;23.564;2023-01-08T01:51:30;20.73;;;12.23;;
10144;SDS011;5113;41.822;23.564;2023-01-08T01:54:38;19.60;;;9.13;;
10144;SDS011;5113;41.822;23.564;2023-01-08T01:57:56;15.90;;;8.50;;
10144;SDS011;5113;41.822;23.564;2023-01-08T02:01:08;23.77;;;9.50;;
10144;SDS011;5113;41.822;23.564;2023-01-08T02:04:15;18.13;;;8.43;;
10144;SDS011;5113;41.822;23.564;2023-01-08T02:07:24;11.27;;;6.70;;
10144;SDS011;5113;41.822;23.564;2023-01-08T02:10:41;17.80;;;8.80;;
10144;SDS011;5113;41.822;23.564;2023-01-08T02:13:58;18.37;;;9.20;;
10144;SDS011;5113;41.822;23.564;2023-01-08T02:17:09;15.13;;;8.30;;
10144;SDS011;5113;41.822;23.564;2023-01-08T02:20:22;12.10;;;7.70;;
10144;SDS011;5113;41.822;23.564;2023-01-08T02:23:38;14.33;;;6.97;;
10144;SDS011;5113;41.822;23.564;2023-01-08T02:26:52;14.57;;;7.97;;
10144;SDS011;5113;41.822;23.564;2023-01-08T02:30:02;9.57;;;7.03;;
10144;SDS011;5113;41.822;23.564;2023-01-08T02:33:10;17.03;;;7.60;;
10144;SDS011;5113;41.822;23.564;2023-01-08T02:36:23;17.33;;;7.83;;
10144;SDS011;5113;41.822;23.564;2023-01-08T02:39:37;19.60;;;7.47;;
10144;SDS011;5113;41.822;23.564;2023-01-08T02:42:54;10.43;;;6.47;;
10144;SDS011;5113;41.822;23.564;2023-01-08T02:46:04;13.87;;;7.80;;
10144;SDS011;5113;41.822;23.564;2023-01-08T02:49:14;25.67;;;11.27;;
10144;SDS011;5113;41.822;23.564;2023-01-08T02:52:22;19.80;;;10.47;;
10144;SDS011;5113;41.822;23.564;2023-01-08T02:55:32;28.83;;;10.43;;
10144;SDS011;5113;41.822;23.564;2023-01-08T02:58:42;10.33;;;7.10;;
10144;SDS011;5113;41.822;23.564;2023-01-08T03:01:51;15.93;;;8.43;;
10144;SDS011;5113;41.822;23.564;2023-01-08T03:05:00;14.97;;;8.33;;
10144;SDS011;5113;41.822;23.564;2023-01-08T03:08:12;15.77;;;6.87;;
10144;SDS011;5113;41.822;23.564;2023-01-08T03:11:19;9.90;;;6.60;;
10144;SDS011;5113;41.822;23.564;2023-01-08T03:14:30;18.30;;;8.63;;
10144;SDS011;5113;41.822;23.564;2023-01-08T03:17:41;24.67;;;9.50;;
10144;SDS011;5113;41.822;23.564;2023-01-08T03:20:51;11.33;;;6.93;;
10144;SDS011;5113;41.822;23.564;2023-01-08T03:23:58;20.17;;;10.50;;
10144;SDS011;5113;41.822;23.564;2023-01-08T03:27:08;14.00;;;10.17;;
10144;SDS011;5113;41.822;23.564;2023-01-08T03:30:20;16.50;;;9.70;;
10144;SDS011;5113;41.822;23.564;2023-01-08T03:33:28;11.07;;;7.23;;
10144;SDS011;5113;41.822;23.564;2023-01-08T03:36:36;10.50;;;6.80;;
10144;SDS011;5113;41.822;23.564;2023-01-08T03:39:46;7.33;;;5.83;;
10144;SDS011;5113;41.822;23.564;2023-01-08T03:42:59;8.97;;;6.70;;
10144;SDS011;5113;41.822;23.564;2023-01-08T03:46:08;14.13;;;8.20;;
10144;SDS011;5113;41.822;23.564;2023-01-08T03:49:18;13.90;;;6.40;;
10144;SDS011;5113;41.822;23.564;2023-01-08T03:52:29;9.33;;;5.93;;
10144;SDS011;5113;41.822;23.564;2023-01-08T03:55:36;13.73;;;7.53;;
10144;SDS011;5113;41.822;23.564;2023-01-08T03:58:42;14.53;;;7.93;;
10144;SDS011;5113;41.822;23.564;2023-01-08T04:01:50;15.47;;;8.27;;
10144;SDS011;5113;41.822;23.564;2023-01-08T04:04:56;13.40;;;8.30;;
10144;SDS011;5113;41.822;23.564;2023-01-08T04:08:03;15.97;;;9.50;;
10144;SDS011;5113;41.822;23.564;2023-01-08T04:11:10;19.63;;;11.50;;
10144;SDS011;5113;41.822;23.564;2023-01-08T04:14:16;10.70;;;9.60;;
10144;SDS011;5113;41.822;23.564;2023-01-08T04:17:24;15.40;;;10.10;;
10144;SDS011;5113;41.822;23.564;2023-01-08T04:20:31;20.03;;;8.63;;
10144;SDS011;5113;41.822;23.564;2023-01-08T04:23:37;18.00;;;11.97;;
10144;SDS011;5113;41.822;23.564;2023-01-08T04:26:43;19.00;;;12.90;;
10144;SDS011;5113;41.822;23.564;2023-01-08T04:29:50;24.30;;;12.73;;
10144;SDS011;5113;41.822;23.564;2023-01-08T04:32:58;29.90;;;11.97;;
10144;SDS011;5113;41.822;23.564;2023-01-08T04:36:05;20.33;;;13.43;;
10144;SDS011;5113;41.822;23.564;2023-01-08T04:39:11;20.50;;;11.20;;
10144;SDS011;5113;41.822;23.564;2023-01-08T04:42:18;19.13;;;11.17;;
10144;SDS011;5113;41.822;23.564;2023-01-08T04:45:24;36.73;;;15.60;;
10144;SDS011;5113;41.822;23.564;2023-01-08T04:48:31;32.27;;;9.87;;
10144;SDS011;5113;41.822;23.564;2023-01-08T04:51:38;14.80;;;8.10;;
10144;SDS011;5113;41.822;23.564;2023-01-08T04:54:44;9.90;;;6.63;;
10144;SDS011;5113;41.822;23.564;2023-01-08T04:57:50;19.83;;;10.93;;
10144;SDS011;5113;41.822;23.564;2023-01-08T05:00:57;32.50;;;17.93;;
10144;SDS011;5113;41.822;23.564;2023-01-08T05:04:04;18.37;;;14.07;;
10144;SDS011;5113;41.822;23.564;2023-01-08T05:07:11;21.63;;;12.93;;
10144;SDS011;5113;41.822;23.564;2023-01-08T05:10:17;21.70;;;12.33;;
10144;SDS011;5113;41.822;23.564;2023-01-08T05:13:24;22.37;;;15.40;;
10144;SDS011;5113;41.822;23.564;2023-01-08T05:16:30;25.20;;;14.47;;
10144;SDS011;5113;41.822;23.564;2023-01-08T05:19:38;26.73;;;12.00;;
10144;SDS011;5113;41.822;23.564;2023-01-08T05:22:44;44.33;;;17.87;;
10144;SDS011;5113;41.822;23.564;2023-01-08T05:25:55;40.13;;;21.50;;
10144;SDS011;5113;41.822;23.564;2023-01-08T05:29:02;33.10;;;20.27;;
10144;SDS011;5113;41.822;23.564;2023-01-08T05:32:09;26.97;;;17.40;;
10144;SDS011;5113;41.822;23.564;2023-01-08T05:35:20;15.63;;;12.40;;
10144;SDS011;5113;41.822;23.564;2023-01-08T05:38:28;31.83;;;18.60;;
10144;SDS011;5113;41.822;23.564;2023-01-08T05:41:34;41.70;;;20.27;;
10144;SDS011;5113;41.822;23.564;2023-01-08T05:44:40;39.30;;;19.03;;
10144;SDS011;5113;41.822;23.564;2023-01-08T05:47:47;38.60;;;19.63;;
10144;SDS011;5113;41.822;23.564;2023-01-08T05:50:55;24.23;;;14.77;;
10144;SDS011;5113;41.822;23.564;2023-01-08T05:54:01;30.33;;;14.17;;
10144;SDS011;5113;41.822;23.564;2023-01-08T05:57:08;28.43;;;13.93;;
10144;SDS011;5113;41.822;23.564;2023-01-08T06:00:15;22.23;;;12.63;;
10144;SDS011;5113;41.822;23.564;2023-01-08T06:03:21;19.97;;;9.37;;
10144;SDS011;5113;41.822;23.564;2023-01-08T06:06:29;29.57;;;12.03;;
10144;SDS011;5113;41.822;23.564;2023-01-08T06:09:36;16.57;;;9.17;;
10144;SDS011;5113;41.822;23.564;2023-01-08T06:12:42;29.67;;;14.37;;
10144;SDS011;5113;41.822;23.564;2023-01-08T06:15:49;29.07;;;13.23;;
10144;SDS011;5113;41.822;23.564;2023-01-08T06:18:55;42.83;;;18.37;;
10144;SDS011;5113;41.822;23.564;2023-01-08T06:22:03;40.27;;;23.00;;
10144;SDS011;5113;41.822;23.564;2023-01-08T06:25:09;38.87;;;19.20;;
10144;SDS011;5113;41.822;23.564;2023-01-08T06:28:15;40.87;;;17.53;;
10144;SDS011;5113;41.822;23.564;2023-01-08T06:31:21;38.73;;;17.80;;
10144;SDS011;5113;41.822;23.564;2023-01-08T06:34:28;45.83;;;21.33;;
10144;SDS011;5113;41.822;23.564;2023-01-08T06:37:35;42.37;;;24.23;;
10144;SDS011;5113;41.822;23.564;2023-01-08T06:40:42;48.37;;;24.10;;
10144;SDS011;5113;41.822;23.564;2023-01-08T06:43:48;26.80;;;16.20;;
10144;SDS011;5113;41.822;23.564;2023-01-08T06:46:54;15.93;;;10.77;;
10144;SDS011;5113;41.822;23.564;2023-01-08T06:50:01;21.23;;;13.13;;
10144;SDS011;5113;41.822;23.564;2023-01-08T06:53:09;37.47;;;17.43;;
10144;SDS011;5113;41.822;23.564;2023-01-08T06:56:16;29.27;;;15.53;;
10144;SDS011;5113;41.822;23.564;2023-01-08T06:59:22;32.47;;;20.10;;
10144;SDS011;5113;41.822;23.564;2023-01-08T07:02:29;28.47;;;16.97;;
10144;SDS011;5113;41.822;23.564;2023-01-08T07:05:36;31.97;;;17.47;;
10144;SDS011;5113;41.822;23.564;2023-01-08T07:08:43;26.20;;;18.33;;
10144;SDS011;5113;41.822;23.564;2023-01-08T07:11:51;34.40;;;19.63;;
10144;SDS011;5113;41.822;23.564;2023-01-08T07:14:57;36.53;;;21.87;;
10144;SDS011;5113;41.822;23.564;2023-01-08T07:18:04;52.10;;;23.73;;
10144;SDS011;5113;41.822;23.564;2023-01-08T07:21:10;70.57;;;25.70;;
10144;SDS011;5113;41.822;23.564;2023-01-08T07:24:18;64.80;;;28.77;;
10144;SDS011;5113;41.822;23.564;2023-01-08T07:27:25;41.43;;;23.57;;
10144;SDS011;5113;41.822;23.564;2023-01-08T07:30:32;58.73;;;24.47;;
10144;SDS011;5113;41.822;23.564;2023-01-08T07:33:38;43.30;;;24.03;;
10144;SDS011;5113;41.822;23.564;2023-01-08T07:36:44;57.80;;;29.97;;
10144;SDS011;5113;41.822;23.564;2023-01-08T07:39:52;61.23;;;29.63;;
10144;SDS011;5113;41.822;23.564;2023-01-08T07:42:59;46.87;;;28.20;;
10144;SDS011;5113;41.822;23.564;2023-01-08T07:46:07;58.90;;;28.37;;
10144;SDS011;5113;41.822;23.564;2023-01-08T07:49:13;58.93;;;32.70;;
10144;SDS011;5113;41.822;23.564;2023-01-08T07:52:19;41.53;;;22.23;;
10144;SDS011;5113;41.822;23.564;2023-01-08T07:55:27;65.93;;;29.57;;
10144;SDS011;5113;41.822;23.564;2023-01-08T07:58:34;64.90;;;31.47;;
10144;SDS011;5113;41.822;23.564;2023-01-08T08:01:41;46.67;;;24.37;;
10144;SDS011;5113;41.822;23.564;2023-01-08T08:04:47;36.60;;;25.47;;
10144;SDS011;5113;41.822;23.564;2023-01-08T08:07:53;41.70;;;22.90;;
10144;SDS011;5113;41.822;23.564;2023-01-08T08:11:01;49.10;;;24.90;;
10144;SDS011;5113;41.822;23.564;2023-01-08T08:14:08;53.90;;;23.70;;
10144;SDS011;5113;41.822;23.564;2023-01-08T08:17:14;32.37;;;20.30;;
10144;SDS011;5113;41.822;23.564;2023-01-08T08:20:21;36.50;;;18.90;;
10144;SDS011;5113;41.822;23.564;2023-01-08T08:23:28;31.43;;;17.40;;
10144;SDS011;5113;41.822;23.564;2023-01-08T08:26:37;42.63;;;17.20;;
10144;SDS011;5113;41.822;23.564;2023-01-08T08:29:44;31.93;;;18.83;;
10144;SDS011;5113;41.822;23.564;2023-01-08T08:32:51;35.97;;;21.47;;
10144;SDS011;5113;41.822;23.564;2023-01-08T08:35:57;42.40;;;17.63;;
10144;SDS011;5113;41.822;23.564;2023-01-08T08:39:04;35.97;;;17.30;;
10144;SDS011;5113;41.822;23.564;2023-01-08T08:42:13;30.07;;;18.43;;
10144;SDS011;5113;41.822;23.564;2023-01-08T08:45:19;28.47;;;15.97;;
10144;SDS011;5113;41.822;23.564;2023-01-08T08:48:25;30.53;;;15.57;;
10144;SDS011;5113;41.822;23.564;2023-01-08T08:51:32;47.67;;;18.97;;
10144;SDS011;5113;41.822;23.564;2023-01-08T08:54:38;28.43;;;17.33;;
10144;SDS011;5113;41.822;23.564;2023-01-08T08:57:46;23.07;;;12.43;;
10144;SDS011;5113;41.822;23.564;2023-01-08T09:00:53;24.60;;;13.67;;
10144;SDS011;5113;41.822;23.564;2023-01-08T09:03:59;40.27;;;17.30;;
10144;SDS011;5113;41.822;23.564;2023-01-08T09:07:05;35.00;;;18.63;;
10144;SDS011;5113;41.822;23.564;2023-01-08T09:10:12;40.43;;;19.10;;
10144;SDS011;5113;41.822;23.564;2023-01-08T09:13:19;29.07;;;15.50;;
10144;SDS011;5113;41.822;23.564;2023-01-08T09:16:25;20.40;;;11.27;;
10144;SDS011;5113;41.822;23.564;2023-01-08T09:19:31;23.70;;;15.20;;
10144;SDS011;5113;41.822;23.564;2023-01-08T09:22:38;23.60;;;12.43;;
10144;SDS011;5113;41.822;23.564;2023-01-08T09:25:44;21.63;;;12.97;;
10144;SDS011;5113;41.822;23.564;2023-01-08T09:28:52;17.70;;;11.60;;
10144;SDS011;5113;41.822;23.564;2023-01-08T09:31:58;28.70;;;13.97;;
10144;SDS011;5113;41.822;23.564;2023-01-08T09:35:06;36.10;;;15.57;;
10144;SDS011;5113;41.822;23.564;2023-01-08T09:38:13;27.93;;;14.47;;
10144;SDS011;5113;41.822;23.564;2023-01-08T09:41:20;23.40;;;13.43;;
10144;SDS011;5113;41.822;23.564;2023-01-08T09:44:32;11.20;;;8.13;;
10144;SDS011;5113;41.822;23.564;2023-01-08T09:47:42;16.97;;;9.40;;
10144;SDS011;5113;41.822;23.564;2023-01-08T09:50:49;24.13;;;11.83;;
10144;SDS011;5113;41.822;23.564;2023-01-08T09:53:56;21.30;;;10.13;;
10144;SDS011;5113;41.822;23.564;2023-01-08T09:57:02;16.73;;;7.93;;
10144;SDS011;5113;41.822;23.564;2023-01-08T10:00:13;10.90;;;8.80;;
10144;SDS011;5113;41.822;23.564;2023-01-08T10:03:22;24.47;;;10.63;;
10144;SDS011;5113;41.822;23.564;2023-01-08T10:06:34;20.80;;;12.17;;
10144;SDS011;5113;41.822;23.564;2023-01-08T10:09:40;14.03;;;10.57;;
10144;SDS011;5113;41.822;23.564;2023-01-08T10:12:47;19.67;;;11.53;;
10144;SDS011;5113;41.822;23.564;2023-01-08T10:15:56;18.93;;;7.87;;
10144;SDS011;5113;41.822;23.564;2023-01-08T10:19:03;12.87;;;8.50;;
10144;SDS011;5113;41.822;23.564;2023-01-08T10:22:10;12.87;;;8.03;;
10144;SDS011;5113;41.822;23.564;2023-01-08T10:25:21;20.10;;;10.33;;
10144;SDS011;5113;41.822;23.564;2023-01-08T10:28:29;19.17;;;9.20;;
10144;SDS011;5113;41.822;23.564;2023-01-08T10:31:44;19.30;;;9.60;;
10144;SDS011;5113;41.822;23.564;2023-01-08T10:34:52;17.13;;;8.60;;
10144;SDS011;5113;41.822;23.564;2023-01-08T10:38:01;15.40;;;8.27;;
10144;SDS011;5113;41.822;23.564;2023-01-08T10:41:08;7.87;;;4.97;;
10144;SDS011;5113;41.822;23.564;2023-01-08T10:44:17;9.60;;;5.33;;
10144;SDS011;5113;41.822;23.564;2023-01-08T10:47:27;9.73;;;6.53;;
10144;SDS011;5113;41.822;23.564;2023-01-08T10:50:37;10.70;;;6.17;;
10144;SDS011;5113;41.822;23.564;2023-01-08T10:53:44;7.50;;;6.40;;
10144;SDS011;5113;41.822;23.564;2023-01-08T10:56:50;20.77;;;9.40;;
10144;SDS011;5113;41.822;23.564;2023-01-08T10:59:57;11.87;;;6.73;;
10144;SDS011;5113;41.822;23.564;2023-01-08T11:03:05;20.47;;;8.37;;
10144;SDS011;5113;41.822;23.564;2023-01-08T11:06:16;17.10;;;9.77;;
10144;SDS011;5113;41.822;23.564;2023-01-08T11:09:27;12.67;;;7.77;;
10144;SDS011;5113;41.822;23.564;2023-01-08T11:12:37;9.43;;;7.10;;
10144;SDS011;5113;41.822;23.564;2023-01-08T11:15:45;12.03;;;7.03;;
10144;SDS011;5113;41.822;23.564;2023-01-08T11:19:13;13.23;;;8.13;;
10144;SDS011;5113;41.822;23.564;2023-01-08T11:22:25;13.83;;;7.70;;
10144;SDS011;5113;41.822;23.564;2023-01-08T11:25:32;14.23;;;6.47;;
10144;SDS011;5113;41.822;23.564;2023-01-08T11:28:49;9.77;;;6.47;;
10144;SDS011;5113;41.822;23.564;2023-01-08T11:32:03;11.30;;;5.07;;
10144;SDS011;5113;41.822;23.564;2023-01-08T11:35:25;14.17;;;6.93;;
10144;SDS011;5113;41.822;23.564;2023-01-08T11:38:33;8.70;;;5.47;;
10144;SDS011;5113;41.822;23.564;2023-01-08T11:41:49;9.63;;;5.63;;
10144;SDS011;5113;41.822;23.564;2023-01-08T11:45:19;3.97;;;3.57;;
10144;SDS011;5113;41.822;23.564;2023-01-08T11:48:34;7.23;;;5.30;;
10144;SDS011;5113;41.822;23.564;2023-01-08T11:52:00;10.80;;;6.87;;
10144;SDS011;5113;41.822;23.564;2023-01-08T11:58:49;18.90;;;8.73;;
10144;SDS011;5113;41.822;23.564;2023-01-08T12:02:08;9.63;;;5.80;;
10144;SDS011;5113;41.822;23.564;2023-01-08T12:05:28;17.33;;;6.63;;
10144;SDS011;5113;41.822;23.564;2023-01-08T12:08:39;15.63;;;7.80;;
10144;SDS011;5113;41.822;23.564;2023-01-08T12:11:55;17.70;;;7.57;;
10144;SDS011;5113;41.822;23.564;2023-01-08T12:15:10;12.77;;;7.90;;
10144;SDS011;5113;41.822;23.564;2023-01-08T12:18:30;16.80;;;9.40;;
10144;SDS011;5113;41.822;23.564;2023-01-08T12:21:47;17.60;;;10.23;;
10144;SDS011;5113;41.822;23.564;2023-01-08T12:28:53;22.30;;;10.53;;
10144;SDS011;5113;41.822;23.564;2023-01-08T12:32:26;14.17;;;9.63;;
10144;SDS011;5113;41.822;23.564;2023-01-08T12:35:40;25.23;;;12.47;;
10144;SDS011;5113;41.822;23.564;2023-01-08T12:38:51;19.23;;;10.83;;
10144;SDS011;5113;41.822;23.564;2023-01-08T12:42:06;22.73;;;10.37;;
10144;SDS011;5113;41.822;23.564;2023-01-08T12:45:19;27.10;;;13.03;;
10144;SDS011;5113;41.822;23.564;2023-01-08T12:48:32;23.13;;;12.53;;
10144;SDS011;5113;41.822;23.564;2023-01-08T12:51:40;16.17;;;10.67;;
10144;SDS011;5113;41.822;23.564;2023-01-08T12:54:55;47.40;;;19.77;;
10144;SDS011;5113;41.822;23.564;2023-01-08T12:58:13;28.17;;;14.90;;
10144;SDS011;5113;41.822;23.564;2023-01-08T13:01:30;46.37;;;20.47;;
10144;SDS011;5113;41.822;23.564;2023-01-08T13:04:45;26.83;;;15.53;;
10144;SDS011;5113;41.822;23.564;2023-01-08T13:07:53;25.33;;;13.80;;
10144;SDS011;5113;41.822;23.564;2023-01-08T13:11:02;32.70;;;16.70;;
10144;SDS011;5113;41.822;23.564;2023-01-08T13:14:11;33.37;;;17.23;;
10144;SDS011;5113;41.822;23.564;2023-01-08T13:17:18;32.07;;;15.43;;
10144;SDS011;5113;41.822;23.564;2023-01-08T13:20:29;25.17;;;14.93;;
10144;SDS011;5113;41.822;23.564;2023-01-08T13:23:37;33.60;;;18.00;;
10144;SDS011;5113;41.822;23.564;2023-01-08T13:26:43;26.90;;;13.93;;
10144;SDS011;5113;41.822;23.564;2023-01-08T13:29:50;23.13;;;14.27;;
10144;SDS011;5113;41.822;23.564;2023-01-08T13:32:56;28.30;;;14.13;;
10144;SDS011;5113;41.822;23.564;2023-01-08T13:36:06;42.87;;;21.23;;
10144;SDS011;5113;41.822;23.564;2023-01-08T13:39:30;39.20;;;18.90;;
10144;SDS011;5113;41.822;23.564;2023-01-08T13:42:39;33.07;;;17.80;;
10144;SDS011;5113;41.822;23.564;2023-01-08T13:49:17;42.37;;;19.53;;
10144;SDS011;5113;41.822;23.564;2023-01-08T13:52:40;54.40;;;23.23;;
10144;SDS011;5113;41.822;23.564;2023-01-08T13:55:51;41.67;;;20.53;;
10144;SDS011;5113;41.822;23.564;2023-01-08T13:59:01;52.13;;;23.50;;
10144;SDS011;5113;41.822;23.564;2023-01-08T14:02:25;58.27;;;30.00;;
10144;SDS011;5113;41.822;23.564;2023-01-08T14:05:35;96.00;;;39.67;;
10144;SDS011;5113;41.822;23.564;2023-01-08T14:08:47;100.33;;;46.53;;
10144;SDS011;5113;41.822;23.564;2023-01-08T14:11:54;82.93;;;30.77;;
10144;SDS011;5113;41.822;23.564;2023-01-08T14:15:01;114.87;;;52.57;;
10144;SDS011;5113;41.822;23.564;2023-01-08T14:18:14;127.47;;;53.17;;
10144;SDS011;5113;41.822;23.564;2023-01-08T14:21:21;95.57;;;40.40;;
10144;SDS011;5113;41.822;23.564;2023-01-08T14:24:28;166.50;;;64.53;;
10144;SDS011;5113;41.822;23.564;2023-01-08T14:27:34;137.20;;;53.37;;
10144;SDS011;5113;41.822;23.564;2023-01-08T14:30:46;141.37;;;57.30;;
10144;SDS011;5113;41.822;23.564;2023-01-08T14:33:54;124.87;;;49.67;;
10144;SDS011;5113;41.822;23.564;2023-01-08T14:37:03;113.30;;;49.33;;
10144;SDS011;5113;41.822;23.564;2023-01-08T14:40:14;109.70;;;49.47;;
10144;SDS011;5113;41.822;23.564;2023-01-08T14:43:22;57.83;;;29.57;;
10144;SDS011;5113;41.822;23.564;2023-01-08T14:46:29;61.90;;;32.80;;
10144;SDS011;5113;41.822;23.564;2023-01-08T14:49:37;50.57;;;24.53;;
10144;SDS011;5113;41.822;23.564;2023-01-08T14:52:48;54.37;;;23.03;;
10144;SDS011;5113;41.822;23.564;2023-01-08T14:55:56;40.87;;;19.87;;
10144;SDS011;5113;41.822;23.564;2023-01-08T14:59:05;42.63;;;20.43;;
10144;SDS011;5113;41.822;23.564;2023-01-08T15:02:15;76.90;;;30.10;;
10144;SDS011;5113;41.822;23.564;2023-01-08T15:05:29;65.20;;;27.80;;
10144;SDS011;5113;41.822;23.564;2023-01-08T15:08:38;73.70;;;34.17;;
10144;SDS011;5113;41.822;23.564;2023-01-08T15:11:47;57.37;;;24.50;;
10144;SDS011;5113;41.822;23.564;2023-01-08T15:15:07;75.37;;;31.90;;
10144;SDS011;5113;41.822;23.564;2023-01-08T15:18:15;66.27;;;27.80;;
10144;SDS011;5113;41.822;23.564;2023-01-08T15:21:23;61.27;;;27.90;;
10144;SDS011;5113;41.822;23.564;2023-01-08T15:24:30;57.10;;;22.77;;
10144;SDS011;5113;41.822;23.564;2023-01-08T15:27:39;58.50;;;28.60;;
10144;SDS011;5113;41.822;23.564;2023-01-08T15:30:47;57.80;;;26.97;;
10144;SDS011;5113;41.822;23.564;2023-01-08T15:33:55;87.53;;;36.10;;
10144;SDS011;5113;41.822;23.564;2023-01-08T15:37:04;42.13;;;21.87;;
10144;SDS011;5113;41.822;23.564;2023-01-08T15:40:11;27.80;;;17.03;;
10144;SDS011;5113;41.822;23.564;2023-01-08T15:43:18;49.67;;;19.63;;
10144;SDS011;5113;41.822;23.564;2023-01-08T15:46:25;52.07;;;23.97;;
10144;SDS011;5113;41.822;23.564;2023-01-08T15:49:34;48.00;;;20.33;;
10144;SDS011;5113;41.822;23.564;2023-01-08T15:52:42;32.10;;;17.30;;
10144;SDS011;5113;41.822;23.564;2023-01-08T15:55:49;50.43;;;23.83;;
10144;SDS011;5113;41.822;23.564;2023-01-08T15:58:56;35.93;;;18.83;;
10144;SDS011;5113;41.822;23.564;2023-01-08T16:02:03;36.93;;;19.53;;
10144;SDS011;5113;41.822;23.564;2023-01-08T16:05:10;63.77;;;29.87;;
10144;SDS011;5113;41.822;23.564;2023-01-08T16:08:18;59.20;;;26.60;;
10144;SDS011;5113;41.822;23.564;2023-01-08T16:11:25;48.77;;;24.93;;
10144;SDS011;5113;41.822;23.564;2023-01-08T16:14:32;42.53;;;21.70;;
10144;SDS011;5113;41.822;23.564;2023-01-08T16:17:41;72.50;;;31.33;;
10144;SDS011;5113;41.822;23.564;2023-01-08T16:20:49;35.20;;;18.80;;
10144;SDS011;5113;41.822;23.564;2023-01-08T16:23:57;44.33;;;20.10;;
10144;SDS011;5113;41.822;23.564;2023-01-08T16:27:03;74.13;;;31.90;;
10144;SDS011;5113;41.822;23.564;2023-01-08T16:30:12;78.10;;;37.43;;
10144;SDS011;5113;41.822;23.564;2023-01-08T16:33:19;76.67;;;33.03;;
10144;SDS011;5113;41.822;23.564;2023-01-08T16:36:27;47.07;;;23.97;;
10144;SDS011;5113;41.822;23.564;2023-01-08T16:39:35;78.93;;;34.47;;
10144;SDS011;5113;41.822;23.564;2023-01-08T16:42:42;139.27;;;44.33;;
10144;SDS011;5113;41.822;23.564;2023-01-08T16:45:49;62.60;;;25.07;;
10144;SDS011;5113;41.822;23.564;2023-01-08T16:48:56;61.60;;;28.90;;
10144;SDS011;5113;41.822;23.564;2023-01-08T16:52:03;70.53;;;27.90;;
10144;SDS011;5113;41.822;23.564;2023-01-08T16:55:11;83.73;;;32.87;;
10144;SDS011;5113;41.822;23.564;2023-01-08T16:58:18;75.47;;;30.80;;
10144;SDS011;5113;41.822;23.564;2023-01-08T17:01:25;81.40;;;30.00;;
10144;SDS011;5113;41.822;23.564;2023-01-08T17:04:32;93.20;;;35.60;;
10144;SDS011;5113;41.822;23.564;2023-01-08T17:07:38;92.30;;;36.27;;
10144;SDS011;5113;41.822;23.564;2023-01-08T17:10:46;86.87;;;32.77;;
10144;SDS011;5113;41.822;23.564;2023-01-08T17:13:53;109.03;;;38.27;;
10144;SDS011;5113;41.822;23.564;2023-01-08T17:16:59;135.07;;;40.70;;
10144;SDS011;5113;41.822;23.564;2023-01-08T17:20:06;161.93;;;52.83;;
10144;SDS011;5113;41.822;23.564;2023-01-08T17:23:13;147.53;;;57.17;;
10144;SDS011;5113;41.822;23.564;2023-01-08T17:26:21;168.87;;;61.10;;
10144;SDS011;5113;41.822;23.564;2023-01-08T17:29:28;204.83;;;71.53;;
10144;SDS011;5113;41.822;23.564;2023-01-08T17:32:34;151.40;;;53.57;;
10144;SDS011;5113;41.822;23.564;2023-01-08T17:35:40;103.93;;;43.60;;
10144;SDS011;5113;41.822;23.564;2023-01-08T17:38:48;130.03;;;52.67;;
10144;SDS011;5113;41.822;23.564;2023-01-08T17:41:56;103.53;;;40.83;;
10144;SDS011;5113;41.822;23.564;2023-01-08T17:45:20;122.13;;;47.90;;
10144;SDS011;5113;41.822;23.564;2023-01-08T17:48:27;76.93;;;37.93;;
10144;SDS011;5113;41.822;23.564;2023-01-08T17:51:33;129.17;;;46.07;;
10144;SDS011;5113;41.822;23.564;2023-01-08T17:54:41;193.97;;;68.50;;
10144;SDS011;5113;41.822;23.564;2023-01-08T17:57:49;102.53;;;42.40;;
10144;SDS011;5113;41.822;23.564;2023-01-08T18:00:56;124.53;;;44.37;;
10144;SDS011;5113;41.822;23.564;2023-01-08T18:04:02;133.13;;;47.47;;
10144;SDS011;5113;41.822;23.564;2023-01-08T18:07:09;105.97;;;49.27;;
10144;SDS011;5113;41.822;23.564;2023-01-08T18:10:16;161.27;;;60.13;;
10144;SDS011;5113;41.822;23.564;2023-01-08T18:13:23;88.97;;;41.97;;
10144;SDS011;5113;41.822;23.564;2023-01-08T18:16:30;86.53;;;39.37;;
10144;SDS011;5113;41.822;23.564;2023-01-08T18:19:37;57.63;;;31.60;;
10144;SDS011;5113;41.822;23.564;2023-01-08T18:22:43;62.83;;;24.43;;
10144;SDS011;5113;41.822;23.564;2023-01-08T18:25:50;61.17;;;26.13;;
10144;SDS011;5113;41.822;23.564;2023-01-08T18:28:58;56.77;;;19.27;;
10144;SDS011;5113;41.822;23.564;2023-01-08T18:32:05;56.10;;;23.17;;
10144;SDS011;5113;41.822;23.564;2023-01-08T18:35:11;62.03;;;25.43;;
10144;SDS011;5113;41.822;23.564;2023-01-08T18:38:19;57.53;;;20.83;;